createdAt,value
2022-12-26T00:00:08.065Z,100718.56
2022-12-26T00:01:11.995Z,100719.45
2022-12-26T00:02:14.755Z,100711.42
2022-12-26T00:03:17.316Z,100720.22
2022-12-26T00:04:49.788Z,100709.59
2022-12-26T00:05:23.986Z,100709.59
2022-12-26T00:06:28.037Z,100710.48
2022-12-26T00:07:30.290Z,100712.19
2022-12-26T00:08:32.585Z,100707.80
2022-12-26T00:09:34.883Z,100709.52
2022-12-26T00:10:37.285Z,100712.19
2022-12-26T00:11:42.236Z,100709.52
2022-12-26T00:12:48.012Z,100706.83
2022-12-26T00:13:57.899Z,100718.42
2022-12-26T00:15:00.351Z,100709.52
2022-12-26T00:17:20.434Z,100709.03
2022-12-26T00:18:23.252Z,100721.23
2022-12-26T00:19:26.510Z,100720.38
2022-12-26T00:20:29.479Z,100730.23
2022-12-26T00:21:31.855Z,100719.58
2022-12-26T00:22:35.059Z,100713.30
2022-12-26T00:23:38.696Z,100715.97
2022-12-26T00:24:42.973Z,100711.56
2022-12-26T00:25:45.823Z,100715.09
2022-12-26T00:26:48.403Z,100718.64
2022-12-26T00:27:50.972Z,100716.02
2022-12-26T00:28:55.060Z,100716.02
2022-12-26T00:29:57.525Z,100708.00
2022-12-26T00:32:40.981Z,100712.91
2022-12-26T00:33:44.700Z,100706.34
2022-12-26T00:34:47.616Z,100706.34
2022-12-26T00:35:50.063Z,100699.29
2022-12-26T00:36:52.464Z,100701.08
2022-12-26T00:37:55.284Z,100700.31
2022-12-26T00:38:59.277Z,100694.02
2022-12-26T00:40:01.872Z,100694.08
2022-12-26T00:41:05.928Z,100698.48
2022-12-26T00:42:08.493Z,100698.48
2022-12-26T00:43:11.537Z,100703.84
2022-12-26T00:44:14.165Z,100701.97
2022-12-26T00:45:16.507Z,100701.00
2022-12-26T00:46:20.269Z,100699.29
2022-12-26T00:47:22.750Z,100708.17
2022-12-26T00:48:26.496Z,100702.81
2022-12-26T00:49:29.717Z,100701.87
2022-12-26T00:50:35.249Z,100703.67
2022-12-26T00:51:37.911Z,100705.49
2022-12-26T00:52:40.752Z,100694.80
2022-12-26T00:53:43.769Z,100699.20
2022-12-26T00:54:46.530Z,100699.20
2022-12-26T00:55:48.915Z,100699.20
2022-12-26T00:56:52.421Z,100698.32
2022-12-26T00:57:54.880Z,100697.38
2022-12-26T00:58:58.036Z,100708.08
2022-12-26T01:00:00.487Z,100708.94
2022-12-26T01:02:41.117Z,100720.84
2022-12-26T01:03:44.629Z,100727.66
2022-12-26T01:04:48.455Z,100718.78
2022-12-26T01:05:51.153Z,100720.52
2022-12-26T01:06:53.800Z,100716.11
2022-12-26T01:08:22.056Z,100715.17
2022-12-26T01:09:01.968Z,100716.96
2022-12-26T01:10:05.410Z,100718.70
2022-12-26T01:11:10.704Z,100724.05
2022-12-26T01:12:13.029Z,100724.05
2022-12-26T01:13:16.685Z,100723.20
2022-12-26T01:14:19.791Z,100720.52
2022-12-26T01:15:22.571Z,100726.72
2022-12-26T01:16:25.425Z,100719.58
2022-12-26T01:17:29.857Z,100724.05
2022-12-26T01:18:32.709Z,100718.70
2022-12-26T01:19:35.635Z,100714.23
2022-12-26T01:20:38.362Z,100724.05
2022-12-26T01:21:43.749Z,100716.02
2022-12-26T01:22:48.449Z,100719.58
2022-12-26T01:23:50.908Z,100719.58
2022-12-26T01:24:54.988Z,100720.44
2022-12-26T01:26:16.617Z,100722.20
2022-12-26T01:27:01.927Z,100724.00
2022-12-26T01:28:04.790Z,100724.00
2022-12-26T01:29:08.243Z,100726.67
2022-12-26T01:30:11.958Z,100726.67
2022-12-26T01:31:17.354Z,100724.94
2022-12-26T01:32:19.829Z,100725.78
2022-12-26T01:33:22.095Z,100723.11
2022-12-26T01:34:24.483Z,100722.26
2022-12-26T01:35:27.127Z,100721.32
2022-12-26T01:36:30.146Z,100722.20
2022-12-26T01:37:33.098Z,100716.91
2022-12-26T01:38:35.453Z,100711.56
2022-12-26T01:39:38.041Z,100718.64
2022-12-26T01:40:44.120Z,100719.58
2022-12-26T01:41:47.384Z,100718.64
2022-12-26T01:42:49.933Z,100725.78
2022-12-26T01:44:02.422Z,100723.11
2022-12-26T01:46:29.118Z,100718.16
2022-12-26T01:47:40.767Z,100719.58
2022-12-26T01:48:44.206Z,100713.34
2022-12-26T01:49:49.244Z,100714.23
2022-12-26T01:50:55.457Z,100717.84
2022-12-26T01:52:02.213Z,100716.96
2022-12-26T01:54:40.606Z,100707.55
2022-12-26T01:55:29.819Z,100714.28
2022-12-26T01:56:36.230Z,100713.44
2022-12-26T01:57:41.300Z,100706.26
2022-12-26T02:00:00.106Z,100706.61
2022-12-26T02:01:03.583Z,100712.49
2022-12-26T02:02:07.669Z,100703.58
2022-12-26T02:03:30.007Z,100709.82
2022-12-26T02:04:54.956Z,100710.67
2022-12-26T02:05:58.285Z,100703.53
2022-12-26T02:07:02.990Z,100704.47
2022-12-26T02:09:23.583Z,100706.70
2022-12-26T02:10:27.697Z,100704.55
2022-12-26T02:11:38.492Z,100703.67
2022-12-26T02:12:42.466Z,100701.00
2022-12-26T02:13:45.725Z,100701.87
2022-12-26T02:14:48.302Z,100698.32
2022-12-26T02:15:52.318Z,100713.44
2022-12-26T02:16:54.814Z,100703.67
2022-12-26T02:17:57.279Z,100706.34
2022-12-26T02:18:59.662Z,100708.94
2022-12-26T02:20:15.059Z,100707.14
2022-12-26T02:23:04.616Z,100709.28
2022-12-26T02:24:37.145Z,100712.49
2022-12-26T02:25:59.937Z,100705.41
2022-12-26T02:28:39.078Z,100702.38
2022-12-26T02:30:07.731Z,100698.48
2022-12-26T02:31:37.676Z,100703.92
2022-12-26T02:32:55.958Z,100701.25
2022-12-26T02:34:26.612Z,100702.19
2022-12-26T02:35:44.894Z,100706.69
2022-12-26T02:37:08.559Z,100701.42
2022-12-26T02:38:35.454Z,100706.85
2022-12-26T02:39:58.612Z,100699.85
2022-12-26T02:42:25.536Z,100704.86
2022-12-26T02:43:58.980Z,100711.66
2022-12-26T02:45:32.635Z,100701.04
2022-12-26T02:47:00.537Z,100701.13
2022-12-26T02:48:21.748Z,100703.00
2022-12-26T02:50:05.691Z,100697.73
2022-12-26T02:51:40.769Z,100697.81
2022-12-26T02:53:08.963Z,100712.92
2022-12-26T02:54:48.734Z,100708.59
2022-12-26T02:56:11.761Z,100697.09
2022-12-26T02:57:35.566Z,100692.72
2022-12-26T02:59:15.825Z,100700.74
2022-12-26T03:00:37.802Z,100702.53
2022-12-26T03:02:01.780Z,100696.41
2022-12-26T03:03:29.572Z,100689.33
2022-12-26T03:04:50.694Z,100690.27
2022-12-26T03:06:15.538Z,100688.56
2022-12-26T03:07:38.801Z,100694.76
2022-12-26T03:09:03.798Z,100697.44
2022-12-26T03:10:34.736Z,100699.25
2022-12-26T03:12:01.259Z,100696.58
2022-12-26T03:13:13.149Z,100701.98
2022-12-26T03:14:25.369Z,100693.10
2022-12-26T03:15:31.109Z,100708.20
2022-12-26T03:16:53.037Z,100697.52
2022-12-26T03:17:59.702Z,100701.04
2022-12-26T03:19:06.342Z,100693.91
2022-12-26T03:20:16.808Z,100694.84
2022-12-26T03:21:22.218Z,100699.30
2022-12-26T03:22:48.241Z,100704.52
2022-12-26T03:23:51.674Z,100705.28
2022-12-26T03:25:12.530Z,100699.00
2022-12-26T03:26:37.274Z,100700.83
2022-12-26T03:27:40.409Z,100703.41
2022-12-26T03:28:43.362Z,100697.19
2022-12-26T03:30:04.060Z,100698.92
2022-12-26T03:31:11.142Z,100698.92
2022-12-26T03:32:14.008Z,100697.09
2022-12-26T03:33:43.190Z,100704.27
2022-12-26T03:34:46.133Z,100700.66
2022-12-26T03:35:49.710Z,100705.03
2022-12-26T03:38:39.332Z,100703.55
2022-12-26T03:40:16.440Z,100709.45
2022-12-26T03:43:25.858Z,100713.31
2022-12-26T03:44:54.049Z,100718.36
2022-12-26T03:46:37.165Z,100718.36
2022-12-26T03:48:03.362Z,100723.62
2022-12-26T03:49:31.462Z,100723.62
2022-12-26T03:50:55.865Z,100723.62
2022-12-26T03:52:26.750Z,100722.73
2022-12-26T03:53:52.171Z,100728.00
2022-12-26T03:55:20.050Z,100728.00
2022-12-26T03:56:44.113Z,100733.34
2022-12-26T03:58:14.698Z,100729.82
2022-12-26T03:59:48.917Z,100726.21
2022-12-26T04:01:10.181Z,100726.21
2022-12-26T04:02:31.338Z,100721.80
2022-12-26T04:03:53.562Z,100725.33
2022-12-26T04:05:14.723Z,100735.97
2022-12-26T04:06:38.513Z,100738.64
2022-12-26T04:08:03.198Z,100733.30
2022-12-26T04:09:28.244Z,100732.33
2022-12-26T04:11:01.189Z,100728.80
2022-12-26T04:12:22.332Z,100735.89
2022-12-26T04:15:24.912Z,100736.19
2022-12-26T04:16:53.338Z,100734.92
2022-12-26T04:18:34.044Z,100732.25
2022-12-26T04:19:57.733Z,100738.48
2022-12-26T04:21:11.884Z,100739.34
2022-12-26T04:22:41.846Z,100737.55
2022-12-26T04:24:03.026Z,100746.50
2022-12-26T04:25:50.563Z,100744.69
2022-12-26T04:26:58.227Z,100741.16
2022-12-26T04:28:18.948Z,100738.48
2022-12-26T04:29:39.733Z,100740.22
2022-12-26T04:31:02.099Z,100748.25
2022-12-26T04:32:27.321Z,100744.69
2022-12-26T04:33:56.356Z,100740.22
2022-12-26T04:35:30.628Z,100742.01
2022-12-26T04:36:54.086Z,100740.22
2022-12-26T04:38:16.132Z,100745.56
2022-12-26T04:39:39.403Z,100737.55
2022-12-26T04:41:03.701Z,100739.34
2022-12-26T04:42:24.352Z,100733.98
2022-12-26T04:43:48.432Z,100739.34
2022-12-26T04:44:50.155Z,100740.22
2022-12-26T04:45:54.008Z,100743.75
2022-12-26T04:46:57.378Z,100743.75
2022-12-26T04:48:18.416Z,100738.40
2022-12-26T04:49:39.223Z,100736.58
2022-12-26T04:50:51.182Z,100740.05
2022-12-26T04:51:57.586Z,100739.09
2022-12-26T04:53:01.246Z,100739.97
2022-12-26T04:54:04.533Z,100745.31
2022-12-26T04:55:08.155Z,100743.41
2022-12-26T04:56:11.311Z,100747.91
2022-12-26T04:57:14.251Z,100752.24
2022-12-26T04:58:18.310Z,100753.09
2022-12-26T04:59:20.691Z,100745.87
2022-12-26T05:00:24.539Z,100749.40
2022-12-26T05:01:46.691Z,100746.64
2022-12-26T05:03:10.207Z,100751.91
2022-12-26T05:04:34.837Z,100752.70
2022-12-26T05:06:01.150Z,100749.06
2022-12-26T05:07:23.432Z,100753.56
2022-12-26T05:09:01.169Z,100755.30
2022-12-26T05:10:04.853Z,100758.83
2022-12-26T05:11:08.375Z,100761.50
2022-12-26T05:12:10.916Z,100760.65
2022-12-26T05:13:13.925Z,100759.77
2022-12-26T05:14:18.303Z,100757.97
2022-12-26T05:15:22.417Z,100762.39
2022-12-26T05:16:45.218Z,100765.06
2022-12-26T05:18:05.888Z,100766.80
2022-12-26T05:19:36.082Z,100770.36
2022-12-26T05:20:45.692Z,100772.06
2022-12-26T05:22:07.692Z,100772.06
2022-12-26T05:23:37.229Z,100772.16
2022-12-26T05:24:59.295Z,100775.71
2022-12-26T05:26:20.843Z,100772.95
2022-12-26T05:27:41.924Z,100780.09
2022-12-26T05:28:45.298Z,100781.06
2022-12-26T05:29:47.843Z,100788.12
2022-12-26T05:30:50.453Z,100787.27
2022-12-26T05:31:54.419Z,100791.77
2022-12-26T05:33:16.320Z,100787.27
2022-12-26T05:34:20.756Z,100793.47
2022-12-26T05:35:23.430Z,100787.18
2022-12-26T05:37:40.991Z,100793.72
2022-12-26T05:38:43.217Z,100789.77
2022-12-26T05:39:46.503Z,100792.45
2022-12-26T05:40:48.965Z,100794.19
2022-12-26T05:41:52.104Z,100790.66
2022-12-26T05:42:54.465Z,100793.25
2022-12-26T05:43:56.886Z,100795.84
2022-12-26T05:44:59.871Z,100789.64
2022-12-26T05:46:02.760Z,100789.64
2022-12-26T05:47:05.284Z,100792.31
2022-12-26T05:48:08.167Z,100794.02
2022-12-26T05:49:12.993Z,100791.34
2022-12-26T05:50:15.802Z,100795.84
2022-12-26T05:51:18.151Z,100792.23
2022-12-26T05:52:20.988Z,100798.52
2022-12-26T05:53:23.298Z,100798.52
2022-12-26T05:54:26.236Z,100802.94
2022-12-26T05:55:28.596Z,100794.02
2022-12-26T05:56:31.685Z,100796.70
2022-12-26T05:57:36.594Z,100800.27
2022-12-26T05:58:39.495Z,100807.40
2022-12-26T05:59:42.752Z,100795.77
2022-12-26T06:00:45.230Z,100795.77
2022-12-26T06:01:48.668Z,100793.00
2022-12-26T06:02:51.604Z,100795.67
2022-12-26T06:03:56.319Z,100794.83
2022-12-26T06:04:58.836Z,100792.15
2022-12-26T06:06:02.119Z,100792.15
2022-12-26T06:07:04.490Z,100801.88
2022-12-26T06:08:06.919Z,100793.86
2022-12-26T06:09:09.951Z,100800.95
2022-12-26T06:10:14.443Z,100789.39
2022-12-26T06:11:17.844Z,100798.27
2022-12-26T06:12:20.209Z,100797.33
2022-12-26T06:13:23.360Z,100800.01
2022-12-26T06:14:25.671Z,100791.98
2022-12-26T06:15:28.097Z,100787.48
2022-12-26T06:16:31.201Z,100789.30
2022-12-26T06:17:33.632Z,100783.87
2022-12-26T06:18:36.694Z,100781.19
2022-12-26T06:19:46.301Z,100783.87
2022-12-26T06:20:43.578Z,100782.93
2022-12-26T06:21:46.326Z,100789.14
2022-12-26T06:22:48.675Z,100784.67
2022-12-26T06:23:51.211Z,100772.14
2022-12-26T06:24:54.142Z,100777.49
2022-12-26T06:25:58.445Z,100781.99
2022-12-26T06:27:01.051Z,100790.79
2022-12-26T06:28:04.132Z,100784.59
2022-12-26T06:29:07.992Z,100776.55
2022-12-26T06:30:11.606Z,100772.91
2022-12-26T06:31:20.887Z,100775.59
2022-12-26T06:32:23.471Z,100775.59
2022-12-26T06:33:26.782Z,100767.55
2022-12-26T06:34:29.392Z,100771.97
2022-12-26T06:35:33.622Z,100769.30
2022-12-26T06:36:36.309Z,100767.50
2022-12-26T06:37:42.100Z,100769.30
2022-12-26T06:38:45.237Z,100771.03
2022-12-26T06:39:47.907Z,100764.83
2022-12-26T06:40:51.585Z,100765.68
2022-12-26T06:41:56.764Z,100767.50
2022-12-26T06:43:00.305Z,100769.21
2022-12-26T06:44:03.466Z,100772.77
2022-12-26T06:45:07.672Z,100767.42
2022-12-26T06:46:16.122Z,100760.33
2022-12-26T06:47:18.623Z,100764.74
2022-12-26T06:48:20.961Z,100764.74
2022-12-26T06:49:32.197Z,100754.04
2022-12-26T06:50:30.147Z,100761.19
2022-12-26T06:51:35.025Z,100750.47
2022-12-26T06:52:38.009Z,100748.69
2022-12-26T06:53:41.845Z,100759.39
2022-12-26T06:54:45.192Z,100754.98
2022-12-26T06:55:48.503Z,100755.83
2022-12-26T06:56:52.205Z,100750.47
2022-12-26T06:57:55.068Z,100752.22
2022-12-26T07:00:12.989Z,100750.67
2022-12-26T07:01:17.638Z,100754.04
2022-12-26T07:02:20.405Z,100752.30
2022-12-26T07:03:27.152Z,100752.22
2022-12-26T07:04:29.710Z,100754.04
2022-12-26T07:05:35.540Z,100757.56
2022-12-26T07:06:39.042Z,100754.89
2022-12-26T07:07:42.500Z,100753.06
2022-12-26T07:08:45.505Z,100743.33
2022-12-26T07:09:48.912Z,100751.36
2022-12-26T07:10:52.485Z,100752.22
2022-12-26T07:11:55.845Z,100751.28
2022-12-26T07:12:58.087Z,100758.42
2022-12-26T07:14:02.056Z,100755.74
2022-12-26T07:15:05.321Z,100760.16
2022-12-26T07:16:10.210Z,100754.80
2022-12-26T07:17:12.792Z,100753.95
2022-12-26T07:18:16.404Z,100756.63
2022-12-26T07:19:19.045Z,100759.30
2022-12-26T07:20:22.648Z,100751.28
2022-12-26T07:21:25.315Z,100744.10
2022-12-26T07:22:29.068Z,100757.48
2022-12-26T07:23:31.992Z,100751.28
2022-12-26T07:24:34.724Z,100754.80
2022-12-26T07:25:37.566Z,100750.30
2022-12-26T07:26:40.128Z,100744.10
2022-12-26T07:27:42.729Z,100750.30
2022-12-26T07:28:45.139Z,100746.77
2022-12-26T07:29:48.511Z,100750.30
2022-12-26T07:30:51.982Z,100752.13
2022-12-26T07:31:55.629Z,100749.45
2022-12-26T07:32:58.819Z,100746.77
2022-12-26T07:34:03.188Z,100747.62
2022-12-26T10:12:25.576Z,100699.45
2022-12-26T10:13:37.879Z,100696.89
2022-12-26T10:14:43.592Z,100694.53
2022-12-26T10:16:01.852Z,100697.42
2022-12-26T10:17:15.348Z,100691.39
2022-12-26T10:18:30.572Z,100690.64
2022-12-26T10:19:42.924Z,100684.54
2022-12-26T10:20:56.530Z,100685.58
2022-12-26T10:22:08.735Z,100683.16
2022-12-26T10:24:33.105Z,100682.00
2022-12-26T10:26:58.741Z,100669.23
2022-12-26T10:28:01.065Z,100671.13
2022-12-26T10:29:13.102Z,100674.20
2022-12-26T10:30:26.109Z,100671.98
2022-12-26T10:31:44.174Z,100673.22
2022-12-26T10:32:50.171Z,100671.88
2022-12-26T10:35:14.717Z,100664.08
2022-12-26T10:36:38.797Z,100663.44
2022-12-26T10:37:41.490Z,100657.79
2022-12-26T10:38:46.760Z,100661.86
2022-12-26T10:41:43.295Z,100666.02
2022-12-26T10:44:04.289Z,100673.45
2022-12-26T10:45:26.191Z,100680.08
2022-12-26T10:48:12.888Z,100663.90
2022-12-26T10:49:18.348Z,100659.84
2022-12-26T10:51:40.554Z,100660.55
2022-12-26T10:52:43.768Z,100668.13
2022-12-26T10:53:52.047Z,100665.37
2022-12-26T10:55:28.857Z,100665.19
2022-12-26T10:56:00.889Z,100664.16
2022-12-26T10:57:04.873Z,100663.98
2022-12-26T10:58:19.248Z,100657.69
2022-12-26T11:00:46.993Z,100649.73
2022-12-26T11:01:50.362Z,100655.72
2022-12-26T11:03:14.692Z,100655.72
2022-12-26T11:04:53.105Z,100660.19
2022-12-26T11:05:57.353Z,100656.66
2022-12-26T11:06:40.356Z,100652.16
2022-12-26T11:07:52.239Z,100647.69
2022-12-26T11:08:54.495Z,100640.52
2022-12-26T11:10:00.987Z,100638.69
2022-12-26T11:11:12.797Z,100643.98
2022-12-26T11:12:24.474Z,100637.56
2022-12-26T11:13:27.530Z,100632.21
2022-12-26T11:14:34.173Z,100636.63
2022-12-26T11:15:44.762Z,100636.63
2022-12-26T11:16:48.349Z,100631.27
2022-12-26T11:17:52.861Z,100628.59
2022-12-26T11:18:55.998Z,100640.24
2022-12-26T11:20:23.302Z,100635.86
2022-12-26T11:21:28.078Z,100635.95
2022-12-26T11:22:30.634Z,100642.92
2022-12-26T11:23:34.321Z,100640.24
2022-12-26T11:24:37.850Z,100641.22
2022-12-26T11:25:50.107Z,100641.22
2022-12-26T11:26:52.467Z,100626.95
2022-12-26T11:27:57.285Z,100627.83
2022-12-26T11:29:17.672Z,100635.86
2022-12-26T11:30:32.777Z,100629.53
2022-12-26T11:31:36.222Z,100633.19
2022-12-26T11:32:39.407Z,100626.09
2022-12-26T11:33:43.410Z,100628.86
2022-12-26T11:34:47.510Z,100634.22
2022-12-26T11:36:10.667Z,100631.53
2022-12-26T11:38:50.106Z,100617.55
2022-12-26T11:39:54.066Z,100621.77
2022-12-26T11:41:15.840Z,100620.03
2022-12-26T11:42:22.207Z,100621.86
2022-12-26T11:43:24.580Z,100620.03
2022-12-26T11:45:48.629Z,100615.02
2022-12-26T11:47:07.626Z,100614.68
2022-12-26T11:48:26.167Z,100618.33
2022-12-26T11:49:50.511Z,100623.59
2022-12-26T11:50:53.171Z,100617.36
2022-12-26T11:51:59.605Z,100613.83
2022-12-26T11:53:04.955Z,100614.77
2022-12-26T11:54:25.960Z,100621.95
2022-12-26T11:55:34.775Z,100616.59
2022-12-26T11:56:38.201Z,100616.59
2022-12-26T11:57:41.317Z,100616.59
2022-12-26T11:58:45.757Z,100620.13
2022-12-26T11:59:48.992Z,100621.95
2022-12-26T12:01:01.781Z,100624.63
2022-12-26T12:02:26.055Z,100614.02
2022-12-26T12:03:36.597Z,100623.74
2022-12-26T12:04:39.902Z,100622.89
2022-12-26T12:06:03.638Z,100620.30
2022-12-26T12:07:33.753Z,100615.89
2022-12-26T12:08:39.964Z,100619.52
2022-12-26T12:09:49.291Z,100616.83
2022-12-26T12:10:56.556Z,100619.52
2022-12-26T12:12:03.213Z,100618.75
2022-12-26T12:14:31.620Z,100615.56
2022-12-26T12:15:52.701Z,100625.22
2022-12-26T12:17:05.853Z,100622.63
2022-12-26T12:18:24.276Z,100625.40
2022-12-26T12:19:31.936Z,100634.38
2022-12-26T12:20:52.020Z,100635.22
2022-12-26T12:22:11.919Z,100638.88
2022-12-26T12:23:21.622Z,100643.34
2022-12-26T12:24:46.358Z,100634.55
2022-12-26T12:26:09.080Z,100645.25
2022-12-26T12:27:34.575Z,100631.96
2022-12-26T12:28:41.605Z,100631.08
2022-12-26T12:30:11.337Z,100626.78
2022-12-26T12:31:36.819Z,100604.41
2022-12-26T12:32:47.115Z,100625.90
2022-12-26T12:33:57.810Z,100628.58
2022-12-26T12:35:20.867Z,100633.92
2022-12-26T12:36:43.632Z,100636.61
2022-12-26T12:38:15.763Z,100632.20
2022-12-26T12:39:30.752Z,100638.52
2022-12-26T12:40:46.443Z,100636.87
2022-12-26T12:42:07.548Z,100637.81
2022-12-26T12:44:56.661Z,100632.72
2022-12-26T12:46:21.174Z,100633.31
2022-12-26T12:47:44.065Z,100630.72
2022-12-26T12:49:19.096Z,100625.28
2022-12-26T12:50:43.553Z,100623.67
2022-12-26T12:52:02.837Z,100626.34
2022-12-26T12:54:55.071Z,100610.64
2022-12-26T12:56:01.223Z,100598.79
2022-12-26T12:57:22.876Z,100601.38
2022-12-26T12:58:32.172Z,100613.91
2022-12-26T12:59:53.919Z,100617.43
2022-12-26T13:01:02.036Z,100616.58
2022-12-26T13:02:12.791Z,100616.58
2022-12-26T13:03:18.879Z,100624.61
2022-12-26T13:04:31.327Z,100622.87
2022-12-26T13:07:09.112Z,100605.44
2022-12-26T13:08:15.746Z,100606.91
2022-12-26T13:09:21.026Z,100592.67
2022-12-26T13:10:32.628Z,100594.32
2022-12-26T13:11:37.748Z,100604.05
2022-12-26T13:12:40.707Z,100602.27
2022-12-26T13:13:55.877Z,100606.64
2022-12-26T13:15:20.451Z,100602.17
2022-12-26T13:16:25.657Z,100600.34
2022-12-26T13:17:35.407Z,100601.20
2022-12-26T13:18:40.525Z,100603.88
2022-12-26T13:20:04.633Z,100595.84
2022-12-26T13:21:12.195Z,100596.82
2022-12-26T13:22:18.231Z,100596.73
2022-12-26T13:23:49.808Z,100599.41
2022-12-26T13:26:13.532Z,100593.47
2022-12-26T13:27:19.393Z,100592.23
2022-12-26T13:28:28.338Z,100596.82
2022-12-26T13:29:42.498Z,100586.97
2022-12-26T13:30:45.246Z,100589.64
2022-12-26T13:31:48.439Z,100573.95
2022-12-26T13:32:55.269Z,100573.95
2022-12-26T13:33:58.450Z,100581.70
2022-12-26T13:35:02.269Z,100578.09
2022-12-26T13:36:06.394Z,100570.06
2022-12-26T13:37:09.479Z,100568.24
2022-12-26T13:38:12.297Z,100570.83
2022-12-26T13:39:25.684Z,100569.09
2022-12-26T13:40:30.146Z,100563.74
2022-12-26T13:41:51.315Z,100568.24
2022-12-26T13:43:19.308Z,100569.18
2022-12-26T13:44:24.523Z,100567.48
2022-12-26T13:45:45.877Z,100564.89
2022-12-26T13:46:52.148Z,100563.16
2022-12-26T13:47:54.873Z,100558.75
2022-12-26T13:48:58.665Z,100553.40
2022-12-26T13:50:38.718Z,100562.27
2022-12-26T13:53:00.540Z,100550.13
2022-12-26T13:54:06.986Z,100549.88
2022-12-26T13:55:15.649Z,100553.40
2022-12-26T13:56:22.183Z,100560.48
2022-12-26T13:57:41.740Z,100562.22
2022-12-26T13:59:02.598Z,100565.66
2022-12-26T14:00:08.676Z,100566.36
2022-12-26T14:01:27.794Z,100564.45
2022-12-26T18:04:31.470Z,100363.91
2022-12-26T18:05:35.469Z,100367.72
2022-12-26T18:06:39.885Z,100363.52
2022-12-26T18:07:47.061Z,100353.47
2022-12-26T18:08:49.502Z,100353.47
2022-12-26T18:09:52.746Z,100348.23
2022-12-26T18:10:55.264Z,100337.81
2022-12-26T18:11:57.607Z,100340.59
2022-12-26T18:13:00.288Z,100335.41
2022-12-26T18:14:04.099Z,100330.23
2022-12-26T18:15:07.993Z,100325.91
2022-12-26T18:16:18.374Z,100327.00
2022-12-26T18:17:22.035Z,100324.44
2022-12-26T18:18:28.385Z,100316.56
2022-12-26T18:19:31.155Z,100316.83
2022-12-26T18:20:35.062Z,100304.67
2022-12-26T18:21:38.713Z,100302.30
2022-12-26T18:22:42.612Z,100310.65
2022-12-26T18:23:46.075Z,100300.30
2022-12-26T18:24:49.260Z,100306.06
2022-12-26T18:25:54.649Z,100309.16
2022-12-26T18:26:57.018Z,100307.80
2022-12-26T18:27:59.466Z,100308.17
2022-12-26T18:29:03.573Z,100294.47
2022-12-26T18:30:10.385Z,100298.49
2022-12-26T18:31:14.358Z,100298.14
2022-12-26T18:32:24.758Z,100298.64
2022-12-26T18:33:27.133Z,100292.06
2022-12-26T18:34:30.708Z,100296.19
2022-12-26T18:35:33.101Z,100295.92
2022-12-26T18:36:37.898Z,100298.31
2022-12-26T18:37:42.018Z,100289.14
2022-12-26T18:38:44.397Z,100295.09
2022-12-26T18:39:48.862Z,100293.06
2022-12-26T18:40:56.848Z,100301.78
2022-12-26T18:42:00.140Z,100300.64
2022-12-26T18:43:04.161Z,100293.30
2022-12-26T18:44:07.206Z,100289.54
2022-12-26T18:45:10.749Z,100288.39
2022-12-26T18:46:17.831Z,100287.34
2022-12-26T18:47:20.511Z,100283.72
2022-12-26T18:48:23.431Z,100272.81
2022-12-26T18:49:27.659Z,100271.77
2022-12-26T18:50:30.911Z,100259.12
2022-12-26T18:51:33.803Z,100262.48
2022-12-26T18:52:38.066Z,100257.03
2022-12-26T18:53:41.694Z,100258.76
2022-12-26T18:54:45.649Z,100268.42
2022-12-26T18:55:48.179Z,100261.13
2022-12-26T18:56:51.242Z,100260.93
2022-12-26T18:57:53.733Z,100260.93
2022-12-26T18:58:58.273Z,100254.55
2022-12-26T19:00:01.568Z,100253.61
2022-12-26T19:01:06.298Z,100248.15
2022-12-26T19:02:16.201Z,100252.55
2022-12-26T19:03:19.133Z,100248.83
2022-12-26T19:04:22.176Z,100246.99
2022-12-26T19:05:31.600Z,100249.57
2022-12-26T19:06:35.130Z,100248.62
2022-12-26T19:07:37.620Z,100244.99
2022-12-26T19:08:40.665Z,100230.61
2022-12-26T19:09:44.804Z,100234.17
2022-12-26T19:10:48.037Z,100213.91
2022-12-26T19:11:52.084Z,100213.91
2022-12-26T19:13:04.737Z,100222.41
2022-12-26T19:14:09.286Z,100213.39
2022-12-26T19:15:12.182Z,100213.39
2022-12-26T19:16:16.338Z,100215.11
2022-12-26T19:17:19.179Z,100207.17
2022-12-26T19:18:22.129Z,100207.95
2022-12-26T19:19:27.072Z,100206.97
2022-12-26T19:20:31.261Z,100202.49
2022-12-26T19:21:33.808Z,100195.30
2022-12-26T19:22:36.892Z,100193.47
2022-12-26T19:23:40.933Z,100194.35
2022-12-26T19:24:45.119Z,100191.67
2022-12-26T19:25:49.697Z,100188.05
2022-12-26T19:26:52.379Z,100187.16
2022-12-26T19:27:54.924Z,100182.69
2022-12-26T19:28:57.559Z,100184.38
2022-12-26T19:30:01.033Z,100183.42
2022-12-26T19:32:22.803Z,100190.66
2022-12-26T19:33:25.940Z,100181.48
2022-12-26T19:34:28.877Z,100181.48
2022-12-26T19:35:31.275Z,100181.48
2022-12-26T19:36:34.952Z,100181.31
2022-12-26T19:37:40.479Z,100176.80
2022-12-26T19:38:44.831Z,100181.31
2022-12-26T19:39:47.872Z,100174.97
2022-12-26T19:40:51.805Z,100175.84
2022-12-26T19:41:54.567Z,100173.06
2022-12-26T19:42:58.026Z,100173.06
2022-12-26T19:44:00.476Z,100168.55
2022-12-26T19:45:05.469Z,100158.71
2022-12-26T19:46:11.273Z,100159.56
2022-12-26T19:47:16.083Z,100156.03
2022-12-26T19:48:19.635Z,100153.45
2022-12-26T19:49:23.050Z,100148.17
2022-12-26T19:50:27.173Z,100150.53
2022-12-26T19:51:31.069Z,100157.12
2022-12-26T19:53:52.085Z,100158.57
2022-12-26T19:54:54.599Z,100163.85
2022-12-26T19:55:58.014Z,100160.23
2022-12-26T19:57:00.788Z,100169.21
2022-12-26T19:58:03.445Z,100172.77
2022-12-26T19:59:06.816Z,100172.77
2022-12-26T20:00:10.663Z,100169.11
2022-12-26T20:01:20.309Z,100170.94
2022-12-26T20:02:24.859Z,100169.21
2022-12-26T20:03:28.693Z,100171.89
2022-12-26T20:04:31.857Z,100161.17
2022-12-26T20:05:40.477Z,100163.01
2022-12-26T20:06:43.853Z,100156.80
2022-12-26T20:07:47.458Z,100160.43
2022-12-26T20:08:50.121Z,100152.39
2022-12-26T20:09:52.834Z,100152.39
2022-12-26T20:11:04.247Z,100147.99
2022-12-26T20:12:07.087Z,100142.64
2022-12-26T20:13:09.575Z,100139.11
2022-12-26T20:14:14.091Z,100140.06
2022-12-26T20:15:18.846Z,100137.48
2022-12-26T20:17:03.340Z,100133.08
2022-12-26T20:17:27.941Z,100144.75
2022-12-26T20:18:32.530Z,100136.71
2022-12-26T20:19:35.018Z,100149.25
2022-12-26T20:20:40.227Z,100146.58
2022-12-26T20:21:43.759Z,100140.38
2022-12-26T20:22:51.209Z,100144.81
2022-12-26T20:23:51.523Z,100144.75
2022-12-26T20:24:55.151Z,100147.32
2022-12-26T20:25:59.237Z,100161.59
2022-12-26T20:27:02.408Z,100161.59
2022-12-26T20:28:04.859Z,100163.39
2022-12-26T20:29:09.132Z,100168.67
2022-12-26T20:30:13.192Z,100173.16
2022-12-26T20:31:18.975Z,100176.78
2022-12-26T20:32:21.438Z,100165.22
2022-12-26T20:33:24.987Z,100166.17